Time;durP1;ratioP1;P1;durP2;ratioP2;P2;SDS_P1;SDS_P2;PMS_P1;PMS_P2;Temp;Humidity;BMP_temperature;BMP_pressure;BME280_temperature;BME280_humidity;BME280_pressure;Samples;Min_cycle;Max_cycle;Signal;HPM_P1;HPM_P2
2023/10/18 00:01:24;;;;;;;;;12.50;9.75;;;;;15.09;63.43;100100.81;6184081;23;46030;-66
2023/10/18 00:03:52;;;;;;;;;9.75;7.50;;;;;15.11;63.73;100106.09;6183586;23;45299;-66
2023/10/18 00:06:21;;;;;;;;;8.25;8.25;;;;;15.06;63.70;100106.38;6184620;23;45372;-66
2023/10/18 00:08:46;;;;;;;;;10.25;9.00;;;;;15.06;63.63;100100.16;6186190;23;45476;-66
2023/10/18 00:11:13;;;;;;;;;11.50;10.00;;;;;14.97;63.64;100086.31;6186328;23;45303;-66
2023/10/18 00:13:38;;;;;;;;;10.00;10.00;;;;;14.98;63.36;100089.84;6184782;23;45779;-66
2023/10/18 00:16:06;;;;;;;;;10.00;10.00;;;;;15.06;63.54;100090.25;6186174;23;45233;-66
2023/10/18 00:18:32;;;;;;;;;9.25;8.75;;;;;15.09;63.42;100090.06;6185397;23;45391;-66
2023/10/18 00:21:02;;;;;;;;;11.50;8.50;;;;;15.10;63.42;100088.25;6185887;23;47005;-66
2023/10/18 00:23:27;;;;;;;;;7.00;6.75;;;;;15.07;63.53;100083.94;6185354;23;45326;-66
2023/10/18 00:25:54;;;;;;;;;9.50;9.50;;;;;15.09;63.33;100087.38;6186657;23;45386;-66
2023/10/18 00:28:22;;;;;;;;;10.75;9.00;;;;;15.04;63.43;100078.75;6159660;23;45359;-66
2023/10/18 00:30:50;;;;;;;;;8.75;8.75;;;;;15.04;63.57;100073.38;6186348;23;45384;-66
2023/10/18 00:33:18;;;;;;;;;9.50;9.50;;;;;15.00;63.33;100071.81;6185447;23;45396;-66
2023/10/18 00:35:44;;;;;;;;;9.75;9.00;;;;;15.04;63.36;100075.19;6185452;23;45249;-66
2023/10/18 00:38:14;;;;;;;;;7.00;7.00;;;;;15.03;63.28;100070.78;6186268;23;45373;-66
2023/10/18 00:40:40;;;;;;;;;7.50;6.50;;;;;15.04;63.38;100070.69;6185848;23;45992;-66
2023/10/18 00:43:20;;;;;;;;;7.50;6.50;;;;;14.98;63.24;100054.91;6186029;23;45346;-66
2023/10/18 00:45:50;;;;;;;;;7.75;7.75;;;;;15.01;63.02;100062.81;6185407;23;45424;-66
2023/10/18 00:48:23;;;;;;;;;8.00;8.00;;;;;15.00;63.33;100061.06;6185780;23;45407;-66
2023/10/18 00:50:52;;;;;;;;;9.50;8.50;;;;;14.96;63.43;100048.78;6185227;23;46098;-66
2023/10/18 00:53:22;;;;;;;;;9.75;9.00;;;;;14.94;63.13;100038.13;6185940;23;45337;-66
2023/10/18 00:55:52;;;;;;;;;7.25;7.25;;;;;14.93;63.55;100046.28;6186328;23;45325;-66
2023/10/18 00:58:19;;;;;;;;;11.00;9.75;;;;;14.87;63.28;100033.22;6185317;23;45248;-66
2023/10/18 01:00:45;;;;;;;;;9.00;8.00;;;;;14.86;63.52;100042.25;6185873;23;46027;-66
2023/10/18 01:03:28;;;;;;;;;7.25;6.75;;;;;14.89;63.65;100039.38;6185766;23;45258;-66
2023/10/18 01:06:05;;;;;;;;;8.50;7.50;;;;;14.86;63.64;100029.66;6185421;23;45556;-66
2023/10/18 01:08:32;;;;;;;;;9.75;9.75;;;;;14.88;63.46;100030.44;6186005;23;45289;-66
2023/10/18 01:11:06;;;;;;;;;7.50;7.50;;;;;14.90;63.55;100022.28;6185618;23;46214;-66
2023/10/18 01:13:34;;;;;;;;;9.00;9.00;;;;;14.89;63.26;100020.56;6184480;23;45268;-66
2023/10/18 01:16:02;;;;;;;;;9.00;8.75;;;;;14.87;63.37;100009.91;6185980;23;45327;-66
2023/10/18 01:18:29;;;;;;;;;10.00;10.00;;;;;14.88;63.77;100006.25;6185768;23;45252;-66
2023/10/18 01:20:56;;;;;;;;;8.00;6.00;;;;;14.89;63.82;100004.44;6185979;23;45911;-66
2023/10/18 01:23:21;;;;;;;;;10.50;9.00;;;;;14.84;63.59;100003.88;6185600;23;45221;-66
2023/10/18 01:25:47;;;;;;;;;9.75;9.50;;;;;14.88;63.37;100002.72;6185808;23;45434;-66
2023/10/18 01:28:12;;;;;;;;;9.25;8.50;;;;;14.90;63.70;99998.97;6185389;23;45627;-66
2023/10/18 01:30:38;;;;;;;;;10.50;8.75;;;;;14.87;63.58;99990.22;6186045;23;45791;-66
2023/10/18 01:33:04;;;;;;;;;9.25;8.75;;;;;14.82;63.45;99980.63;6185526;23;48746;-66
2023/10/18 01:35:31;;;;;;;;;8.25;8.25;;;;;14.79;63.77;99980.81;6185139;23;45351;-66
2023/10/18 01:37:57;;;;;;;;;9.75;9.75;;;;;14.78;63.58;99981.81;6185912;23;45441;-66
2023/10/18 01:42:56;;;;;;;;;10.25;10.00;;;;;14.72;63.58;99965.19;6185289;23;45328;-66
2023/10/18 01:45:26;;;;;;;;;10.75;8.75;;;;;14.78;63.85;99979.13;6184501;23;45727;-66
2023/10/18 01:47:51;;;;;;;;;6.50;6.50;;;;;14.72;63.87;99963.38;6185760;23;45301;-66
2023/10/18 01:50:18;;;;;;;;;8.00;8.00;;;;;14.78;63.19;99965.69;6184991;23;50443;-66
2023/10/18 01:52:44;;;;;;;;;9.00;8.00;;;;;14.81;63.65;99969.97;6185010;23;45288;-66
2023/10/18 01:55:12;;;;;;;;;7.25;7.25;;;;;14.76;63.32;99958.66;6185333;23;45332;-66
2023/10/18 01:57:43;;;;;;;;;10.25;8.75;;;;;14.74;63.54;99956.06;6184838;23;45418;-66
2023/10/18 02:00:34;;;;;;;;;9.50;9.25;;;;;14.79;63.56;99956.66;6185350;23;46865;-66
2023/10/18 02:03:00;;;;;;;;;7.25;7.25;;;;;14.74;63.60;99950.69;6184765;23;45190;-66
2023/10/18 02:05:26;;;;;;;;;5.00;5.00;;;;;14.77;63.60;99945.13;6185665;23;45422;-66
2023/10/18 02:07:54;;;;;;;;;10.25;9.50;;;;;14.78;63.54;99952.25;6185818;23;45190;-66
2023/10/18 02:10:23;;;;;;;;;7.00;6.00;;;;;14.74;63.24;99953.38;6185291;23;47052;-66
2023/10/18 02:12:48;;;;;;;;;10.25;8.00;;;;;14.73;63.23;99948.09;6184921;23;45766;-66
2023/10/18 02:15:17;;;;;;;;;8.00;7.25;;;;;14.70;63.11;99941.13;6185024;23;45397;-66
2023/10/18 02:17:51;;;;;;;;;9.25;8.25;;;;;14.64;63.49;99934.28;6184979;23;45607;-66
2023/10/18 02:20:26;;;;;;;;;8.25;8.25;;;;;14.68;63.48;99926.91;6185836;23;45333;-66
2023/10/18 02:22:53;;;;;;;;;9.25;8.75;;;;;14.70;63.35;99924.13;6184547;23;45548;-66
2023/10/18 02:25:37;;;;;;;;;9.75;8.00;;;;;14.69;63.60;99920.56;6185021;23;45461;-66
2023/10/18 02:28:08;;;;;;;;;7.25;7.25;;;;;14.65;63.30;99913.69;6185058;23;45422;-66
2023/10/18 02:30:38;;;;;;;;;8.00;7.50;;;;;14.65;63.83;99900.25;6184888;23;46068;-66
2023/10/18 02:33:05;;;;;;;;;8.25;7.50;;;;;14.59;63.41;99888.06;6184169;23;45356;-66
2023/10/18 02:35:33;;;;;;;;;7.50;7.25;;;;;14.59;63.59;99882.69;6185575;23;45329;-66
2023/10/18 02:38:08;;;;;;;;;8.75;8.00;;;;;14.64;63.57;99885.09;6185624;23;45266;-66
2023/10/18 02:40:38;;;;;;;;;9.50;8.50;;;;;14.65;63.48;99886.81;6184934;23;46296;-66
2023/10/18 02:43:07;;;;;;;;;10.00;8.00;;;;;14.64;63.72;99874.34;6184541;23;45610;-66
2023/10/18 02:45:33;;;;;;;;;9.25;9.00;;;;;14.62;63.80;99869.06;6185368;23;45305;-66
2023/10/18 02:47:59;;;;;;;;;7.25;6.25;;;;;14.60;63.57;99862.03;6185274;23;45771;-66
2023/10/18 02:50:25;;;;;;;;;9.00;9.00;;;;;14.49;63.56;99853.78;6185770;23;45442;-66
2023/10/18 02:52:53;;;;;;;;;8.75;7.50;;;;;14.55;63.73;99861.44;6185090;23;45253;-66
2023/10/18 02:55:18;;;;;;;;;7.50;7.50;;;;;14.61;63.71;99870.00;6185268;23;45681;-66
2023/10/18 02:57:48;;;;;;;;;7.00;7.00;;;;;14.61;63.92;99866.47;6185239;23;45316;-66
2023/10/18 03:00:14;;;;;;;;;8.75;8.75;;;;;14.61;63.76;99851.22;6184781;23;46098;-66
2023/10/18 03:02:39;;;;;;;;;7.50;7.50;;;;;14.62;63.92;99850.25;6157826;23;45309;-66
2023/10/18 03:05:06;;;;;;;;;7.00;7.00;;;;;14.64;63.65;99850.16;6185112;23;45903;-66
2023/10/18 03:07:32;;;;;;;;;9.25;9.25;;;;;14.64;63.67;99834.06;6184990;23;45295;-66
2023/10/18 03:10:26;;;;;;;;;11.75;10.50;;;;;14.64;63.83;99826.84;6186345;23;46141;-66
2023/10/18 03:12:44;;;;;;;;;9.00;9.00;;;;;14.68;63.92;99823.97;6185036;23;45589;-66
2023/10/18 03:15:14;;;;;;;;;7.00;7.00;;;;;14.69;63.67;99818.50;6186720;23;45282;-66
2023/10/18 03:17:39;;;;;;;;;9.25;8.50;;;;;14.63;63.84;99809.03;6185813;23;45295;-66
2023/10/18 03:20:39;;;;;;;;;10.75;9.25;;;;;14.63;64.17;99800.09;6186406;23;45273;-66
2023/10/18 03:23:02;;;;;;;;;7.25;7.25;;;;;14.63;63.76;99806.34;6181287;23;45557;-67
2023/10/18 03:25:27;;;;;;;;;8.50;8.50;;;;;14.62;63.80;99812.66;6186330;23;45365;-66
2023/10/18 03:27:57;;;;;;;;;10.75;10.00;;;;;14.63;63.74;99811.72;6185644;23;45355;-66
2023/10/18 03:30:39;;;;;;;;;8.00;7.50;;;;;14.67;64.06;99827.59;6185628;23;46231;-66
2023/10/18 03:33:07;;;;;;;;;8.50;8.50;;;;;14.67;63.85;99816.88;6185655;23;45447;-66
2023/10/18 03:35:37;;;;;;;;;11.75;8.50;;;;;14.69;64.20;99825.72;6185992;23;45431;-66
2023/10/18 03:38:04;;;;;;;;;8.75;8.75;;;;;14.67;64.03;99827.59;6185806;23;45451;-66
2023/10/18 03:40:36;;;;;;;;;11.25;8.75;;;;;14.68;64.15;99834.72;6186044;23;46048;-66
2023/10/18 03:43:08;;;;;;;;;8.75;6.25;;;;;14.68;64.35;99830.19;6185855;23;45492;-66
2023/10/18 03:46:08;;;;;;;;;8.00;7.25;;;;;14.73;64.58;99838.81;6161050;23;45363;-66
2023/10/18 03:48:29;;;;;;;;;9.25;9.25;;;;;14.73;64.49;99841.50;6185292;23;45328;-66
2023/10/18 03:50:55;;;;;;;;;9.00;7.00;;;;;14.76;64.18;99832.41;6184971;23;46926;-66
2023/10/18 03:53:21;;;;;;;;;7.25;7.00;;;;;14.76;64.23;99830.56;6185395;23;45309;-66
2023/10/18 03:55:49;;;;;;;;;9.00;9.00;;;;;14.78;64.46;99836.72;6186266;23;45325;-66
2023/10/18 03:58:22;;;;;;;;;8.25;8.00;;;;;14.69;64.44;99823.88;6185613;23;45376;-66
2023/10/18 04:00:47;;;;;;;;;11.00;8.00;;;;;14.78;64.25;99825.09;6185723;23;46317;-66
2023/10/18 04:03:15;;;;;;;;;7.50;7.00;;;;;14.76;64.32;99810.91;6185663;23;45418;-66
2023/10/18 04:05:49;;;;;;;;;8.00;7.50;;;;;14.75;64.41;99804.69;6186153;23;45327;-66
2023/10/18 04:08:18;;;;;;;;;10.00;8.75;;;;;14.76;64.43;99798.34;6185655;23;45373;-66
2023/10/18 04:10:46;;;;;;;;;9.00;8.00;;;;;14.80;64.28;99807.06;6185618;23;45300;-66
2023/10/18 04:13:12;;;;;;;;;7.50;6.75;;;;;14.80;64.31;99797.19;6185399;23;45505;-66
2023/10/18 04:15:39;;;;;;;;;9.50;8.00;;;;;14.83;64.37;99793.41;6185966;23;45358;-66
2023/10/18 04:20:33;;;;;;;;;8.50;7.50;;;;;14.72;64.98;99772.66;6185120;23;46014;-66
2023/10/18 04:23:00;;;;;;;;;9.50;9.50;;;;;14.77;65.45;99786.63;6186179;23;45160;-66
2023/10/18 04:25:31;;;;;;;;;11.25;10.25;;;;;14.73;65.63;99781.56;6185585;23;45257;-66
2023/10/18 04:27:58;;;;;;;;;9.75;9.25;;;;;14.67;66.09;99781.94;6186170;23;45316;-66
2023/10/18 04:30:30;;;;;;;;;7.50;6.00;;;;;14.66;66.30;99786.47;6185920;23;45722;-66
2023/10/18 04:33:12;;;;;;;;;6.75;6.00;;;;;14.75;67.58;99779.63;6185911;23;45601;-66
2023/10/18 04:35:51;;;;;;;;;9.50;9.50;;;;;14.75;67.27;99772.44;6185638;23;45853;-66
2023/10/18 04:38:37;;;;;;;;;9.00;8.75;;;;;14.75;67.35;99767.06;6186135;23;45321;-66
2023/10/18 04:41:08;;;;;;;;;9.50;9.25;;;;;14.72;67.18;99766.41;6186288;23;45269;-66
2023/10/18 04:43:37;;;;;;;;;10.50;8.50;;;;;14.68;67.23;99757.66;6185558;23;45407;-66
2023/10/18 04:51:27;;;;;;;;;8.25;7.25;;;;;14.58;68.21;99721.59;6185830;23;45301;-66
2023/10/18 04:54:00;;;;;;;;;9.00;9.00;;;;;14.53;68.23;99732.63;6185019;23;45453;-66
2023/10/18 04:56:37;;;;;;;;;8.25;8.00;;;;;14.58;69.07;99733.22;6159906;23;45366;-66
2023/10/18 04:59:10;;;;;;;;;7.75;7.25;;;;;14.57;68.36;99726.13;6185785;23;45551;-66
2023/10/18 05:01:36;;;;;;;;;9.50;9.50;;;;;14.58;68.85;99724.28;6185294;23;46117;-66
2023/10/18 05:06:56;;;;;;;;;9.25;7.75;;;;;14.48;69.61;99712.44;6185249;23;45362;-66
2023/10/18 05:09:32;;;;;;;;;8.75;8.75;;;;;14.54;69.75;99718.25;6185879;23;45594;-66
2023/10/18 05:14:42;;;;;;;;;8.25;8.25;;;;;14.53;69.14;99718.38;6162847;23;45399;-66
2023/10/18 05:17:18;;;;;;;;;11.00;9.75;;;;;14.50;69.48;99710.50;6158883;23;45411;-66
2023/10/18 05:19:44;;;;;;;;;9.00;9.00;;;;;14.41;69.83;99696.72;6186101;23;45296;-66
2023/10/18 05:22:23;;;;;;;;;11.00;9.50;;;;;14.51;70.13;99705.03;6185487;23;47225;-66
2023/10/18 05:24:55;;;;;;;;;10.00;10.00;;;;;14.49;69.94;99698.06;6185343;23;45275;-66
2023/10/18 05:27:24;;;;;;;;;8.75;8.75;;;;;14.51;69.79;99696.97;6185374;23;45336;-66
2023/10/18 05:29:58;;;;;;;;;9.25;9.25;;;;;14.52;69.96;99695.19;6185972;23;45431;-66
2023/10/18 05:32:49;;;;;;;;;10.00;8.75;;;;;14.50;70.18;99686.34;6184464;23;46039;-66
2023/10/18 05:35:47;;;;;;;;;8.50;8.50;;;;;14.50;70.12;99694.38;6184851;23;45346;-66
2023/10/18 05:38:48;;;;;;;;;8.50;6.25;;;;;14.50;70.00;99692.59;6181224;23;45622;-66
2023/10/18 05:40:57;;;;;;;;;8.00;6.00;;;;;14.51;70.07;99686.22;6181850;23;45337;-66
2023/10/18 05:43:23;;;;;;;;;9.25;9.00;;;;;14.53;70.21;99678.09;6184898;23;45438;-66
2023/10/18 05:46:03;;;;;;;;;11.00;9.25;;;;;14.54;70.05;99680.66;6185917;23;45534;-66
2023/10/18 05:48:32;;;;;;;;;9.75;8.00;;;;;14.51;70.43;99683.56;6185497;23;45332;-66
2023/10/18 05:51:21;;;;;;;;;10.00;9.00;;;;;14.55;70.22;99690.47;6185650;23;45461;-66
2023/10/18 05:53:47;;;;;;;;;9.00;8.00;;;;;14.59;70.16;99680.41;6183823;23;47095;-66
2023/10/18 05:56:12;;;;;;;;;8.00;8.00;;;;;14.58;69.98;99671.47;6185345;23;45403;-66
2023/10/18 05:58:37;;;;;;;;;9.25;9.25;;;;;14.58;70.37;99675.94;6185226;23;52139;-66
2023/10/18 06:01:03;;;;;;;;;12.75;10.50;;;;;14.57;70.53;99676.94;6185187;23;45600;-66
2023/10/18 06:03:41;;;;;;;;;8.00;7.25;;;;;14.57;70.26;99683.16;6184076;23;46913;-66
2023/10/18 06:06:07;;;;;;;;;9.75;9.75;;;;;14.50;70.01;99665.72;6185657;22;45510;-66
2023/10/18 06:08:32;;;;;;;;;11.50;10.25;;;;;14.50;70.44;99671.09;6184917;23;45376;-66
2023/10/18 06:11:06;;;;;;;;;3.50;3.00;;;;;14.64;70.14;99691.69;6185698;23;45398;-66
2023/10/18 06:13:35;;;;;;;;;8.25;6.50;;;;;14.58;70.53;99684.00;6183917;23;46135;-66
2023/10/18 06:16:17;;;;;;;;;10.00;8.25;;;;;14.62;69.77;99686.44;6185381;23;45222;-66
2023/10/18 06:18:45;;;;;;;;;6.25;6.25;;;;;14.63;70.20;99692.66;6185265;23;45278;-66
2023/10/18 06:21:12;;;;;;;;;9.75;9.75;;;;;14.64;70.63;99697.06;6185364;23;45249;-66
2023/10/18 06:23:38;;;;;;;;;10.75;9.50;;;;;14.60;70.91;99682.09;6184319;23;47067;-66
2023/10/18 06:26:52;;;;;;;;;8.50;7.50;;;;;14.68;70.50;99693.22;6185200;23;45346;-66
2023/10/18 06:29:12;;;;;;;;;7.50;6.50;;;;;14.68;70.50;99690.53;6176673;23;45404;-66
2023/10/18 06:31:43;;;;;;;;;10.00;10.00;;;;;14.71;70.87;99670.66;6184155;23;45352;-66
2023/10/18 06:34:17;;;;;;;;;8.50;8.50;;;;;14.71;70.65;99666.16;6185016;23;46038;-66
2023/10/18 06:36:42;;;;;;;;;10.00;10.00;;;;;14.72;70.41;99664.34;6185005;23;45277;-66
2023/10/18 06:39:15;;;;;;;;;10.00;8.00;;;;;14.72;70.62;99659.81;6185741;23;45440;-66
2023/10/18 06:41:43;;;;;;;;;8.50;8.25;;;;;14.67;70.59;99651.22;6184368;23;45213;-66
2023/10/18 06:44:11;;;;;;;;;9.00;9.00;;;;;14.67;70.57;99643.16;6182840;23;45977;-66
2023/10/18 06:46:38;;;;;;;;;9.25;9.25;;;;;14.69;70.75;99641.22;6184894;23;45282;-66
2023/10/18 06:49:10;;;;;;;;;9.25;9.25;;;;;14.64;70.25;99636.16;6185362;23;45400;-68
2023/10/18 06:51:40;;;;;;;;;7.75;7.50;;;;;14.64;70.82;99632.63;6183496;23;45343;-67
2023/10/18 06:54:07;;;;;;;;;9.00;7.75;;;;;14.70;70.75;99647.44;6183521;23;46899;-67
2023/10/18 06:56:39;;;;;;;;;8.75;7.75;;;;;14.72;70.44;99648.22;6183715;23;45893;-66
2023/10/18 06:59:04;;;;;;;;;8.25;8.25;;;;;14.74;70.15;99640.94;6208847;22;45300;-66
2023/10/18 07:01:31;;;;;;;;;9.25;9.00;;;;;14.69;70.49;99633.16;6182967;23;45170;-66
2023/10/18 07:03:56;;;;;;;;;7.75;6.00;;;;;14.73;70.68;99633.81;6180618;23;46129;-67
2023/10/18 07:06:29;;;;;;;;;6.75;6.75;;;;;14.72;70.31;99611.47;6182913;23;45221;-67
2023/10/18 07:08:57;;;;;;;;;11.75;10.00;;;;;14.79;70.37;99611.91;6184392;22;45326;-66
2023/10/18 07:11:23;;;;;;;;;8.75;8.75;;;;;14.79;70.44;99596.66;6181702;23;45464;-66
2023/10/18 07:13:54;;;;;;;;;10.75;8.50;;;;;14.79;70.57;99587.75;6183369;23;46847;-67
2023/10/18 07:16:38;;;;;;;;;9.00;8.25;;;;;14.75;70.82;99589.78;6182133;23;45362;-66
2023/10/18 07:19:06;;;;;;;;;10.00;9.00;;;;;14.78;70.72;99603.00;6182521;23;45455;-66
2023/10/18 07:21:32;;;;;;;;;9.50;9.50;;;;;14.77;70.50;99617.41;6183118;23;45280;-66
2023/10/18 07:24:09;;;;;;;;;9.25;9.25;;;;;14.52;70.21;99579.72;6183523;23;46527;-66
2023/10/18 07:26:35;;;;;;;;;10.00;10.00;;;;;14.76;70.87;99618.34;6182117;23;45649;-66
2023/10/18 07:29:00;;;;;;;;;9.00;8.00;;;;;14.77;70.74;99613.84;6183065;23;45344;-66
2023/10/18 07:31:32;;;;;;;;;9.75;9.25;;;;;14.77;70.94;99614.72;6183543;23;45308;-66
2023/10/18 07:34:02;;;;;;;;;9.00;8.50;;;;;14.84;70.51;99620.53;6205056;22;47894;-67
2023/10/18 07:36:28;;;;;;;;;10.00;9.00;;;;;14.86;70.52;99615.91;6182918;23;45365;-66
2023/10/18 07:38:56;;;;;;;;;9.00;9.00;;;;;14.90;70.72;99611.19;6181098;23;45354;-66
2023/10/18 07:41:27;;;;;;;;;10.25;10.00;;;;;14.90;70.57;99605.81;6177116;23;45423;-65
2023/10/18 07:43:55;;;;;;;;;10.00;9.75;;;;;14.94;70.64;99612.69;6182088;23;45448;-65
2023/10/18 07:46:24;;;;;;;;;11.50;10.25;;;;;14.90;70.78;99597.75;6181872;23;45509;-66
2023/10/18 07:48:53;;;;;;;;;11.00;11.00;;;;;14.94;70.59;99605.50;6180513;23;45396;-65
2023/10/18 07:51:26;;;;;;;;;11.25;11.25;;;;;14.94;70.71;99588.53;6179215;23;45494;-65
2023/10/18 07:53:55;;;;;;;;;10.00;9.50;;;;;14.95;70.76;99591.09;6181026;23;46083;-65
2023/10/18 07:56:27;;;;;;;;;12.25;11.50;;;;;14.98;70.55;99580.16;6182476;23;45481;-65
2023/10/18 08:01:46;;;;;;;;;9.75;9.25;;;;;15.00;70.95;99574.63;6181607;23;45572;-64
2023/10/18 08:04:19;;;;;;;;;10.75;8.75;;;;;15.04;70.87;99573.47;6181884;23;46760;-63
2023/10/18 08:06:45;;;;;;;;;9.50;9.00;;;;;15.07;70.93;99565.19;6183148;23;45388;-65
2023/10/18 08:09:12;;;;;;;;;9.75;7.25;;;;;15.05;71.10;99547.44;6184169;23;45363;-64
2023/10/18 08:11:37;;;;;;;;;11.75;11.25;;;;;15.12;70.57;99543.38;6184399;23;45369;-64
2023/10/18 08:14:10;;;;;;;;;10.25;9.00;;;;;15.18;71.14;99559.94;6183532;23;45432;-64
2023/10/18 08:16:44;;;;;;;;;8.25;8.25;;;;;15.19;70.91;99540.13;6183241;23;45452;-64
2023/10/18 08:19:11;;;;;;;;;8.75;8.00;;;;;15.24;70.83;99536.28;6183939;23;45581;-64
2023/10/18 08:21:37;;;;;;;;;7.75;7.00;;;;;15.26;70.98;99534.34;6183323;23;45453;-65
2023/10/18 08:24:20;;;;;;;;;10.00;9.25;;;;;15.29;70.93;99531.44;6181334;23;45621;-65
2023/10/18 08:26:51;;;;;;;;;7.75;7.75;;;;;15.32;71.21;99540.13;6183510;23;45408;-64
2023/10/18 08:29:16;;;;;;;;;9.50;8.50;;;;;15.40;71.19;99542.25;6182941;23;45293;-65
2023/10/18 08:31:54;;;;;;;;;8.25;8.25;;;;;15.43;71.45;99535.81;6155814;23;45819;-65
2023/10/18 08:34:19;;;;;;;;;9.00;9.00;;;;;15.49;71.31;99535.38;6160644;23;45429;-64
2023/10/18 08:36:45;;;;;;;;;8.00;7.50;;;;;15.52;71.51;99533.34;6157212;23;45341;-64
2023/10/18 08:39:10;;;;;;;;;8.00;8.00;;;;;15.57;71.37;99522.25;6184258;23;45706;-64
2023/10/18 08:41:44;;;;;;;;;7.00;7.00;;;;;15.63;71.51;99527.16;6182056;23;45454;-64
2023/10/18 08:44:19;;;;;;;;;12.00;9.25;;;;;15.69;71.50;99526.72;6182365;23;45415;-65
2023/10/18 08:47:04;;;;;;;;;9.25;9.25;;;;;15.68;71.82;99514.22;6182183;23;45739;-64
2023/10/18 08:49:33;;;;;;;;;10.00;8.50;;;;;15.74;71.51;99515.63;6183066;23;45403;-64
2023/10/18 08:52:08;;;;;;;;;9.25;8.00;;;;;15.80;71.50;99523.25;6181831;23;45592;-64
2023/10/18 08:54:39;;;;;;;;;7.75;7.25;;;;;15.85;71.48;99514.84;6181828;23;45305;-64
2023/10/18 08:57:08;;;;;;;;;7.75;6.50;;;;;15.86;71.62;99503.13;6182969;23;45342;-65
2023/10/18 08:59:50;;;;;;;;;6.50;5.25;;;;;15.93;71.77;99507.91;6155624;23;45876;-65
2023/10/18 09:02:23;;;;;;;;;9.00;8.50;;;;;15.95;71.77;99501.59;6181601;23;45393;-65
2023/10/18 09:04:52;;;;;;;;;5.00;5.00;;;;;16.01;71.68;99503.81;6182443;23;45614;-65
2023/10/18 09:07:22;;;;;;;;;9.00;8.00;;;;;16.08;71.65;99497.00;6181457;23;45558;-66
2023/10/18 09:09:57;;;;;;;;;9.00;7.50;;;;;16.14;71.57;99499.25;6154685;23;45410;-66
2023/10/18 09:17:47;;;;;;;;;10.50;10.00;;;;;16.28;72.02;99496.34;6181742;23;45300;-66
2023/10/18 09:20:15;;;;;;;;;8.50;8.50;;;;;16.31;72.20;99489.88;6182514;23;45583;-66
2023/10/18 09:22:45;;;;;;;;;7.25;7.25;;;;;16.33;71.97;99485.22;6184299;23;45503;-66
2023/10/18 09:25:11;;;;;;;;;11.75;11.00;;;;;16.37;71.92;99486.72;6156662;23;46086;-66
2023/10/18 09:27:36;;;;;;;;;8.75;8.25;;;;;16.44;71.82;99492.50;6184141;23;45444;-66
2023/10/18 09:30:04;;;;;;;;;9.50;7.50;;;;;16.48;72.31;99504.75;6182305;23;45269;-66
2023/10/18 09:32:32;;;;;;;;;8.00;8.00;;;;;16.49;71.76;99485.78;6183240;23;45716;-66
2023/10/18 09:35:07;;;;;;;;;11.25;9.50;;;;;16.60;71.73;99479.53;6182907;23;46134;-66
2023/10/18 09:37:35;;;;;;;;;9.25;8.00;;;;;16.65;72.08;99490.81;6158580;23;45255;-66
2023/10/18 09:40:03;;;;;;;;;6.75;6.75;;;;;16.68;71.85;99481.66;6182806;23;45429;-66
2023/10/18 09:42:28;;;;;;;;;7.25;7.00;;;;;16.72;71.69;99483.13;6182774;23;45449;-66
2023/10/18 09:44:53;;;;;;;;;8.00;8.00;;;;;16.77;71.76;99491.72;6184533;23;45320;-66
2023/10/18 09:47:23;;;;;;;;;10.00;9.50;;;;;16.82;71.69;99483.25;6182511;23;54239;-66
2023/10/18 09:49:50;;;;;;;;;9.50;8.25;;;;;16.84;71.66;99466.03;6180603;23;45444;-66
2023/10/18 09:52:16;;;;;;;;;9.00;9.00;;;;;16.87;71.90;99472.16;6182258;23;45421;-66
2023/10/18 09:54:49;;;;;;;;;12.50;9.75;;;;;16.92;71.80;99467.25;6182205;23;46154;-66
2023/10/18 09:57:19;;;;;;;;;9.00;9.00;;;;;16.94;71.59;99460.78;6180887;23;45481;-66
2023/10/18 09:59:47;;;;;;;;;9.00;7.50;;;;;16.93;71.50;99445.56;6184089;23;45626;-66
2023/10/18 10:02:15;;;;;;;;;9.50;9.50;;;;;16.87;71.37;99431.72;6183789;23;45456;-66
2023/10/18 10:04:43;;;;;;;;;9.25;8.00;;;;;17.00;71.77;99444.09;6181827;23;45440;-65
2023/10/18 10:07:28;;;;;;;;;8.00;7.00;;;;;17.04;71.93;99436.66;6181505;23;45549;-66
2023/10/18 10:10:07;;;;;;;;;9.50;9.50;;;;;17.07;72.09;99432.81;6181284;23;45391;-65
2023/10/18 10:12:33;;;;;;;;;7.50;7.50;;;;;17.05;71.96;99406.00;6181499;23;45550;-65
2023/10/18 10:14:59;;;;;;;;;10.50;9.75;;;;;17.07;71.98;99416.66;6181897;23;46128;-65
2023/10/18 10:17:28;;;;;;;;;7.00;6.50;;;;;17.14;71.99;99431.34;6182638;23;45516;-66
2023/10/18 10:19:58;;;;;;;;;7.75;7.00;;;;;17.17;72.22;99436.50;6181762;23;45321;-66
2023/10/18 10:22:25;;;;;;;;;9.75;8.50;;;;;17.19;72.21;99424.63;6181872;23;45581;-65
2023/10/18 10:25:04;;;;;;;;;7.00;6.00;;;;;17.22;72.08;99424.38;6183905;23;45413;-65
2023/10/18 10:32:58;;;;;;;;;8.75;8.00;;;;;17.32;72.94;99407.44;6181661;23;45217;-65
2023/10/18 10:35:25;;;;;;;;;8.25;8.25;;;;;17.37;72.67;99411.47;6183297;23;45666;-65
2023/10/18 10:38:00;;;;;;;;;7.00;6.50;;;;;17.37;72.72;99395.28;6182424;23;45603;-65
2023/10/18 10:43:04;;;;;;;;;8.00;6.25;;;;;17.44;72.67;99392.94;6183248;23;45360;-66
2023/10/18 10:45:38;;;;;;;;;9.50;7.00;;;;;17.53;72.63;99404.81;6183349;23;46077;-66
2023/10/18 10:48:16;;;;;;;;;9.00;9.00;;;;;17.57;73.02;99401.75;6184003;23;45557;-66
2023/10/18 10:50:45;;;;;;;;;6.50;6.50;;;;;17.59;72.76;99385.41;6181627;23;45741;-66
2023/10/18 10:53:11;;;;;;;;;7.75;7.75;;;;;17.61;72.88;99388.84;6182391;23;45386;-66
2023/10/18 10:55:37;;;;;;;;;9.00;7.50;;;;;17.66;73.41;99393.84;6183659;23;46267;-66
2023/10/18 10:58:18;;;;;;;;;9.25;7.25;;;;;17.68;72.82;99390.03;6183001;23;45538;-66
2023/10/18 11:00:59;;;;;;;;;8.50;8.25;;;;;17.72;73.02;99377.16;6184065;23;45393;-66
2023/10/18 11:03:30;;;;;;;;;6.50;6.50;;;;;17.75;72.69;99374.19;6207536;22;45448;-66
2023/10/18 11:05:58;;;;;;;;;6.75;6.75;;;;;17.76;72.89;99367.81;6182675;23;46306;-66
2023/10/18 11:08:27;;;;;;;;;6.75;6.75;;;;;17.82;73.36;99366.44;6182886;23;45584;-66
2023/10/18 11:10:54;;;;;;;;;9.00;8.00;;;;;17.84;73.34;99361.75;6183360;23;45455;-66
2023/10/18 11:13:25;;;;;;;;;8.75;8.00;;;;;17.86;73.14;99355.25;6183621;23;45471;-66
2023/10/18 11:15:52;;;;;;;;;8.00;8.00;;;;;17.88;73.01;99355.16;6181919;23;45824;-66
2023/10/18 11:18:20;;;;;;;;;6.25;6.25;;;;;17.90;73.25;99350.47;6183280;23;45347;-66
2023/10/18 11:23:33;;;;;;;;;9.50;8.25;;;;;17.93;73.71;99336.72;6182082;23;45359;-66
2023/10/18 11:25:59;;;;;;;;;8.25;6.50;;;;;17.94;74.52;99324.91;6183052;23;46189;-66
2023/10/18 11:28:31;;;;;;;;;7.25;7.25;;;;;17.90;74.36;99321.63;6155542;23;45433;-66
2023/10/18 11:30:57;;;;;;;;;5.50;5.50;;;;;17.96;74.64;99322.97;6183447;23;45271;-66
2023/10/18 11:33:36;;;;;;;;;8.25;8.25;;;;;17.96;74.73;99321.13;6185406;23;45256;-66
2023/10/18 11:36:04;;;;;;;;;6.75;6.50;;;;;17.95;75.81;99305.06;6185596;23;46839;-66
2023/10/18 11:38:34;;;;;;;;;8.25;6.50;;;;;17.98;76.12;99306.66;6185723;23;45258;-66
2023/10/18 11:41:04;;;;;;;;;9.50;8.50;;;;;17.98;75.73;99293.16;6183659;23;45542;-66
2023/10/18 11:43:39;;;;;;;;;8.25;8.25;;;;;17.99;76.30;99286.75;6178831;23;45613;-66
2023/10/18 11:46:06;;;;;;;;;10.25;9.25;;;;;17.99;76.80;99282.19;6179738;23;46998;-65
2023/10/18 11:48:33;;;;;;;;;7.75;7.75;;;;;17.92;76.87;99262.97;6181764;23;45386;-65
2023/10/18 11:50:59;;;;;;;;;7.00;7.00;;;;;18.00;77.17;99265.00;6180136;23;45754;-66
2023/10/18 11:53:26;;;;;;;;;8.00;7.25;;;;;18.03;77.87;99269.31;6179119;23;45456;-65
2023/10/18 11:56:05;;;;;;;;;7.50;6.75;;;;;18.00;77.25;99256.91;6180260;23;45537;-66
2023/10/18 11:58:32;;;;;;;;;7.50;7.25;;;;;18.01;77.78;99246.97;6179278;23;45836;-65
2023/10/18 12:01:00;;;;;;;;;6.75;6.00;;;;;18.00;78.06;99242.56;6179512;23;45670;-65
2023/10/18 12:03:33;;;;;;;;;8.25;7.00;;;;;18.01;78.46;99237.03;6178491;23;45829;-66
2023/10/18 12:06:00;;;;;;;;;6.25;6.25;;;;;18.03;78.85;99234.19;6180209;23;45784;-65
2023/10/18 12:08:30;;;;;;;;;6.00;6.00;;;;;17.99;79.12;99233.59;6180739;23;45391;-65
2023/10/18 12:10:57;;;;;;;;;9.00;9.00;;;;;18.01;79.51;99226.25;6179249;23;45754;-65
2023/10/18 12:13:22;;;;;;;;;10.00;8.50;;;;;17.97;79.72;99222.06;6180753;23;45395;-65
2023/10/18 12:15:48;;;;;;;;;10.50;7.25;;;;;17.93;80.08;99202.59;6181370;23;45622;-65
2023/10/18 12:18:14;;;;;;;;;6.50;6.50;;;;;17.95;79.84;99202.47;6179856;23;45415;-66